createdAt,value
2018-12-06T00:00:43.147Z,9.03
2018-12-06T00:03:11.497Z,9.13
2018-12-06T00:05:39.808Z,9.23
2018-12-06T00:08:15.741Z,9.33
2018-12-06T00:10:44.440Z,9.35
2018-12-06T00:13:13.744Z,9.03
2018-12-06T00:15:42.076Z,8.40
2018-12-06T00:18:10.481Z,9.65
2018-12-06T00:20:38.920Z,10.18
2018-12-06T00:23:07.509Z,9.45
2018-12-06T00:25:35.861Z,9.30
2018-12-06T00:28:04.254Z,9.73
2018-12-06T00:30:39.359Z,9.28
2018-12-06T00:33:07.711Z,9.40
2018-12-06T00:35:36.027Z,9.50
2018-12-06T00:38:04.698Z,8.98
2018-12-06T00:40:32.966Z,10.45
2018-12-06T00:43:01.410Z,11.25
2018-12-06T00:45:29.862Z,11.40
2018-12-06T00:47:58.167Z,10.88
2018-12-06T00:50:26.509Z,9.40
2018-12-06T00:52:54.840Z,10.45
2018-12-06T00:55:23.160Z,9.90
2018-12-06T00:57:51.486Z,11.30
2018-12-06T01:00:19.996Z,12.90
2018-12-06T01:02:48.275Z,12.20
2018-12-06T01:05:16.581Z,10.88
2018-12-06T01:07:44.970Z,10.15
2018-12-06T01:10:13.448Z,9.40
2018-12-06T01:12:41.821Z,10.10
2018-12-06T01:15:10.130Z,11.63
2018-12-06T01:17:38.504Z,12.05
2018-12-06T01:20:08.211Z,11.80
2018-12-06T01:22:36.761Z,11.45
2018-12-06T01:25:06.468Z,10.03
2018-12-06T01:27:34.809Z,9.88
2018-12-06T01:30:03.325Z,11.15
2018-12-06T01:32:31.828Z,11.95
2018-12-06T01:35:00.391Z,10.68
2018-12-06T01:37:28.758Z,10.35
2018-12-06T01:39:57.193Z,10.50
2018-12-06T01:42:25.819Z,10.35
2018-12-06T01:44:54.235Z,10.95
2018-12-06T01:47:22.783Z,9.60
2018-12-06T01:49:51.168Z,10.10
2018-12-06T01:52:19.543Z,10.28
2018-12-06T01:54:47.965Z,10.72
2018-12-06T01:57:16.484Z,9.40
2018-12-06T01:59:44.985Z,10.58
2018-12-06T02:02:13.366Z,9.55
2018-12-06T02:04:41.760Z,10.10
2018-12-06T02:07:10.028Z,9.65
2018-12-06T02:09:38.509Z,9.65
2018-12-06T02:12:06.861Z,9.95
2018-12-06T02:14:35.230Z,10.05
2018-12-06T02:17:03.757Z,10.68
2018-12-06T02:19:32.185Z,10.98
2018-12-06T02:22:00.565Z,11.22
2018-12-06T02:24:29.110Z,10.65
2018-12-06T02:26:57.469Z,13.15
2018-12-06T02:29:27.742Z,15.20
2018-12-06T02:31:56.360Z,14.65
2018-12-06T02:34:24.675Z,15.20
2018-12-06T02:36:53.120Z,15.63
2018-12-06T02:39:21.425Z,14.18
2018-12-06T02:41:49.995Z,15.40
2018-12-06T02:44:18.406Z,15.70
2018-12-06T02:46:46.666Z,16.85
2018-12-06T02:49:14.964Z,14.90
2018-12-06T02:51:43.294Z,13.48
2018-12-06T02:54:11.876Z,14.30
2018-12-06T02:56:40.184Z,13.93
2018-12-06T02:59:08.663Z,14.98
2018-12-06T03:01:37.143Z,14.73
2018-12-06T03:04:05.545Z,14.65
2018-12-06T03:06:33.807Z,16.12
2018-12-06T03:09:02.081Z,15.38
2018-12-06T03:11:30.503Z,14.63
2018-12-06T03:13:58.783Z,14.25
2018-12-06T03:16:27.114Z,15.58
2018-12-06T03:18:55.748Z,13.28
2018-12-06T03:21:24.062Z,14.83
2018-12-06T03:23:52.424Z,14.93
2018-12-06T03:26:20.862Z,14.20
2018-12-06T03:28:49.349Z,13.95
2018-12-06T03:31:17.768Z,13.25
2018-12-06T03:33:46.104Z,12.73
2018-12-06T03:36:14.502Z,13.30
2018-12-06T03:38:42.962Z,13.85
2018-12-06T03:41:11.480Z,14.65
2018-12-06T03:43:39.794Z,12.65
2018-12-06T03:46:08.394Z,12.40
2018-12-06T03:48:36.701Z,12.55
2018-12-06T03:51:05.050Z,10.82
2018-12-06T03:53:33.314Z,11.03
2018-12-06T03:56:01.668Z,11.35
2018-12-06T03:58:30.070Z,10.60
2018-12-06T04:00:58.454Z,10.78
2018-12-06T04:03:26.807Z,10.35
2018-12-06T04:05:55.163Z,9.75
2018-12-06T04:08:23.477Z,9.75
2018-12-06T04:10:51.827Z,8.98
2018-12-06T04:13:20.232Z,8.80
2018-12-06T04:15:48.665Z,9.88
2018-12-06T04:18:16.988Z,9.05
2018-12-06T04:20:45.281Z,9.53
2018-12-06T04:23:13.593Z,9.25
2018-12-06T04:25:41.937Z,10.80
2018-12-06T04:28:10.329Z,11.83
2018-12-06T04:30:38.762Z,10.95
2018-12-06T04:33:07.286Z,8.95
2018-12-06T04:35:35.613Z,9.18
2018-12-06T04:38:03.993Z,8.35
2018-12-06T04:40:32.455Z,8.78
2018-12-06T04:43:00.779Z,9.53
2018-12-06T04:45:29.071Z,9.65
2018-12-06T04:47:57.402Z,8.78
2018-12-06T04:50:25.967Z,8.25
2018-12-06T04:52:54.316Z,8.45
2018-12-06T04:55:22.821Z,9.38
2018-12-06T04:57:51.144Z,8.75
2018-12-06T05:00:19.489Z,9.65
2018-12-06T05:02:48.021Z,9.15
2018-12-06T05:05:16.466Z,9.90
2018-12-06T05:07:44.832Z,8.48
2018-12-06T05:10:13.264Z,9.65
2018-12-06T05:12:41.674Z,9.20
2018-12-06T05:15:10.193Z,8.95
2018-12-06T05:17:39.087Z,8.60
2018-12-06T05:20:07.455Z,8.63
2018-12-06T05:22:35.948Z,7.65
2018-12-06T05:25:05.571Z,8.90
2018-12-06T05:27:34.076Z,9.03
2018-12-06T05:30:02.346Z,8.35
2018-12-06T05:32:31.075Z,8.10
2018-12-06T05:34:59.440Z,7.28
2018-12-06T05:37:27.730Z,8.35
2018-12-06T05:39:56.242Z,9.13
2018-12-06T05:42:25.331Z,9.45
2018-12-06T05:44:53.681Z,9.60
2018-12-06T05:47:22.012Z,9.03
2018-12-06T05:49:50.529Z,9.23
2018-12-06T05:52:19.052Z,8.43
2018-12-06T05:54:49.577Z,8.98
2018-12-06T05:57:18.058Z,8.33
2018-12-06T05:59:46.355Z,8.70
2018-12-06T06:02:14.679Z,8.35
2018-12-06T06:04:43.173Z,8.93
2018-12-06T06:07:11.473Z,8.93
2018-12-06T06:09:40.182Z,9.00
2018-12-06T06:12:08.664Z,8.20
2018-12-06T06:14:37.196Z,8.85
2018-12-06T06:17:05.568Z,9.15
2018-12-06T06:19:33.929Z,8.15
2018-12-06T06:22:02.256Z,9.83
2018-12-06T06:24:30.610Z,8.70
2018-12-06T06:26:59.322Z,9.88
2018-12-06T06:29:27.714Z,8.88
2018-12-06T06:31:56.140Z,9.18
2018-12-06T06:34:24.474Z,9.35
2018-12-06T06:36:52.831Z,8.50
2018-12-06T06:39:21.186Z,8.78
2018-12-06T06:41:49.462Z,8.15
2018-12-06T06:44:17.822Z,8.70
2018-12-06T06:46:46.338Z,9.20
2018-12-06T06:49:14.688Z,9.55
2018-12-06T06:51:42.960Z,9.10
2018-12-06T06:54:11.382Z,8.38
2018-12-06T06:56:39.659Z,9.95
2018-12-06T06:59:07.949Z,10.20
2018-12-06T07:01:36.702Z,8.33
2018-12-06T07:04:05.351Z,9.23
2018-12-06T07:06:33.761Z,10.03
2018-12-06T07:09:02.175Z,9.53
2018-12-06T07:11:30.467Z,8.90
2018-12-06T07:13:58.816Z,9.00
2018-12-06T07:16:27.233Z,9.03
2018-12-06T07:18:55.618Z,8.25
2018-12-06T07:21:24.357Z,8.70
2018-12-06T07:23:52.852Z,8.75
2018-12-06T07:26:21.845Z,8.23
2018-12-06T07:28:50.246Z,9.08
2018-12-06T07:31:18.642Z,8.73
2018-12-06T07:33:47.760Z,8.98
2018-12-06T07:36:17.519Z,9.30
2018-12-06T07:38:45.865Z,8.90
2018-12-06T07:41:14.348Z,9.13
2018-12-06T07:43:42.607Z,9.08
2018-12-06T07:46:11.766Z,8.73
2018-12-06T07:48:40.046Z,9.00
2018-12-06T07:51:08.431Z,8.55
2018-12-06T07:53:36.754Z,9.90
2018-12-06T07:56:05.165Z,9.28
2018-12-06T07:58:35.090Z,9.43
2018-12-06T08:01:06.975Z,9.55
2018-12-06T08:03:36.789Z,8.88
2018-12-06T08:06:05.148Z,8.70
2018-12-06T08:08:34.406Z,8.63
2018-12-06T08:11:03.474Z,8.78
2018-12-06T08:13:32.588Z,8.63
2018-12-06T08:16:02.263Z,9.28
2018-12-06T08:18:30.655Z,8.38
2018-12-06T08:20:59.574Z,9.98
2018-12-06T08:23:28.282Z,9.00
2018-12-06T08:25:58.053Z,9.35
2018-12-06T08:28:26.366Z,10.25
2018-12-06T08:30:54.652Z,9.00
2018-12-06T08:33:22.930Z,9.25
2018-12-06T08:35:51.374Z,9.70
2018-12-06T08:38:21.619Z,9.58
2018-12-06T08:40:50.086Z,9.70
2018-12-06T08:43:18.892Z,10.80
2018-12-06T08:45:51.629Z,8.88
2018-12-06T08:48:27.170Z,8.88
2018-12-06T08:50:55.590Z,8.60
2018-12-06T08:53:23.958Z,8.78
2018-12-06T08:55:53.672Z,8.95
2018-12-06T08:58:22.323Z,9.38
2018-12-06T09:00:54.079Z,9.30
2018-12-06T09:03:22.926Z,8.58
2018-12-06T09:05:51.246Z,8.35
2018-12-06T09:08:19.642Z,9.85
2018-12-06T09:10:51.497Z,8.10
2018-12-06T09:13:18.365Z,9.08
2018-12-06T09:15:46.664Z,8.50
2018-12-06T09:18:15.103Z,8.55
2018-12-06T09:20:43.545Z,10.20
2018-12-06T09:23:12.819Z,8.58
2018-12-06T09:25:41.464Z,9.15
2018-12-06T09:28:10.755Z,10.03
2018-12-06T09:30:42.751Z,8.70
2018-12-06T09:33:11.201Z,9.48
2018-12-06T09:35:41.173Z,9.40
2018-12-06T09:38:09.416Z,8.30
2018-12-06T09:40:38.100Z,9.73
2018-12-06T09:43:06.564Z,8.93
2018-12-06T09:45:35.062Z,9.58
2018-12-06T09:48:03.367Z,8.78
2018-12-06T09:50:33.206Z,9.95
2018-12-06T09:53:01.509Z,9.63
2018-12-06T09:55:29.788Z,10.18
2018-12-06T09:57:58.118Z,9.25
2018-12-06T10:00:27.434Z,8.75
2018-12-06T10:02:56.044Z,9.80
2018-12-06T10:05:24.375Z,9.88
2018-12-06T10:07:52.750Z,10.28
2018-12-06T10:10:23.066Z,10.23
2018-12-06T10:12:51.416Z,10.10
2018-12-06T10:15:20.948Z,9.68
2018-12-06T10:17:51.223Z,9.33
2018-12-06T10:20:19.649Z,9.40
2018-12-06T10:22:48.152Z,9.58
2018-12-06T10:25:17.992Z,9.88
2018-12-06T10:27:46.316Z,9.30
2018-12-06T10:30:14.671Z,9.10
2018-12-06T10:32:43.031Z,8.35
2018-12-06T10:35:12.251Z,9.40
2018-12-06T10:37:40.640Z,7.90
2018-12-06T10:40:09.340Z,8.80
2018-12-06T10:42:37.649Z,8.23
2018-12-06T10:45:07.204Z,8.30
2018-12-06T10:47:35.800Z,7.83
2018-12-06T10:50:05.106Z,6.97
2018-12-06T10:52:35.121Z,7.97
2018-12-06T10:55:08.599Z,6.20
2018-12-06T10:57:41.222Z,7.40
2018-12-06T11:00:14.859Z,5.70
2018-12-06T11:02:49.484Z,6.40
2018-12-06T11:05:18.256Z,5.57
2018-12-06T11:07:46.935Z,6.27
2018-12-06T11:10:15.906Z,5.70
2018-12-06T11:12:44.238Z,4.80
2018-12-06T11:15:12.765Z,5.53
2018-12-06T11:17:41.198Z,6.00
2018-12-06T11:20:09.592Z,5.55
2018-12-06T11:22:42.467Z,5.10
2018-12-06T11:25:10.886Z,5.30
2018-12-06T11:27:39.283Z,5.78
2018-12-06T11:30:08.010Z,4.60
2018-12-06T11:32:36.399Z,5.50
2018-12-06T11:35:04.978Z,4.47
2018-12-06T11:37:35.246Z,4.35
2018-12-06T11:40:03.837Z,4.33
2018-12-06T11:42:32.134Z,4.37
2018-12-06T11:45:00.692Z,3.87
2018-12-06T11:47:31.111Z,4.00
2018-12-06T11:49:59.420Z,3.70
2018-12-06T11:52:27.821Z,3.60
2018-12-06T11:54:56.348Z,4.80
2018-12-06T11:57:27.896Z,3.30
2018-12-06T11:59:56.206Z,3.20
2018-12-06T12:02:24.612Z,3.67
2018-12-06T12:04:53.406Z,4.50
2018-12-06T12:07:22.460Z,3.67
2018-12-06T12:09:51.058Z,4.40
2018-12-06T12:12:19.336Z,3.80
2018-12-06T12:14:47.779Z,3.50
2018-12-06T12:17:16.274Z,4.10
2018-12-06T12:19:45.145Z,4.10
2018-12-06T12:22:14.438Z,3.25
2018-12-06T12:24:43.337Z,3.30
2018-12-06T12:27:12.252Z,3.53
2018-12-06T12:29:41.210Z,3.63
2018-12-06T12:32:10.631Z,3.72
2018-12-06T12:34:39.056Z,3.77
2018-12-06T12:37:07.443Z,3.60
2018-12-06T12:39:36.042Z,3.72
2018-12-06T12:42:05.507Z,3.10
2018-12-06T12:44:33.810Z,3.57
2018-12-06T12:47:04.739Z,4.47
2018-12-06T12:49:33.036Z,3.50
2018-12-06T12:52:01.331Z,3.50
2018-12-06T12:54:29.649Z,4.07
2018-12-06T12:56:58.868Z,4.10
2018-12-06T12:59:27.274Z,3.80
2018-12-06T13:01:57.831Z,3.77
2018-12-06T13:04:26.828Z,4.23
2018-12-06T13:06:55.183Z,4.40
2018-12-06T13:09:23.542Z,4.43
2018-12-06T13:11:51.863Z,3.93
2018-12-06T13:14:20.223Z,3.93
2018-12-06T13:16:48.521Z,4.20
2018-12-06T13:19:16.999Z,3.87
2018-12-06T13:21:45.383Z,3.27
2018-12-06T13:24:13.718Z,4.10
2018-12-06T13:26:42.087Z,4.07
2018-12-06T13:29:10.653Z,3.40
2018-12-06T13:31:38.978Z,2.87
2018-12-06T13:34:11.153Z,2.00
2018-12-06T13:36:44.734Z,1.37
2018-12-06T13:39:13.162Z,1.37
2018-12-06T13:41:42.071Z,1.30
2018-12-06T13:44:10.419Z,1.30
2018-12-06T13:46:38.902Z,1.30
2018-12-06T13:49:07.750Z,1.30
2018-12-06T13:51:36.014Z,1.00
2018-12-06T13:54:05.241Z,1.17
2018-12-06T13:56:34.123Z,1.20
2018-12-06T13:59:04.230Z,1.20
2018-12-06T14:01:32.571Z,1.57
2018-12-06T14:04:01.117Z,1.63
2018-12-06T14:06:29.727Z,1.40
2018-12-06T14:08:58.521Z,1.80
2018-12-06T14:11:26.865Z,1.70
2018-12-06T14:13:55.611Z,1.17
2018-12-06T14:16:24.084Z,1.60
2018-12-06T14:18:52.460Z,1.97
2018-12-06T14:21:20.794Z,1.40
2018-12-06T14:23:49.178Z,1.60
2018-12-06T14:26:17.661Z,1.30
2018-12-06T14:28:46.457Z,1.60
2018-12-06T14:31:14.762Z,1.50
2018-12-06T14:33:44.035Z,1.30
2018-12-06T14:36:14.782Z,1.60
2018-12-06T14:38:43.142Z,1.43
2018-12-06T14:41:11.490Z,1.10
2018-12-06T14:43:39.823Z,1.10
2018-12-06T14:46:08.824Z,1.60
2018-12-06T14:48:37.196Z,1.30
2018-12-06T14:51:07.445Z,1.40
2018-12-06T14:53:35.751Z,1.20
2018-12-06T14:56:07.773Z,1.77
2018-12-06T14:58:36.213Z,1.70
2018-12-06T15:01:04.554Z,1.40
2018-12-06T15:03:32.933Z,1.47
2018-12-06T15:06:01.467Z,2.00
2018-12-06T15:08:29.854Z,1.40
2018-12-06T15:10:58.307Z,1.60
2018-12-06T15:13:26.787Z,1.73
2018-12-06T15:15:55.088Z,1.90
2018-12-06T15:18:23.459Z,1.60
2018-12-06T15:20:51.910Z,1.50
2018-12-06T15:23:20.436Z,1.90
2018-12-06T15:25:48.876Z,1.92
2018-12-06T15:28:17.496Z,2.20
2018-12-06T15:30:46.138Z,2.33
2018-12-06T15:33:14.942Z,1.70
2018-12-06T15:35:43.725Z,2.10
2018-12-06T15:38:12.076Z,1.77
2018-12-06T15:40:40.414Z,2.17
2018-12-06T15:43:08.998Z,1.80
2018-12-06T15:45:37.780Z,1.77
2018-12-06T15:48:07.011Z,2.20
2018-12-06T15:50:36.371Z,2.10
2018-12-06T15:53:05.545Z,1.80
2018-12-06T15:55:33.866Z,1.90
2018-12-06T15:58:02.203Z,2.40
2018-12-06T16:00:30.616Z,1.95
2018-12-06T16:02:59.037Z,2.20
2018-12-06T16:05:27.394Z,2.00
2018-12-06T16:07:55.706Z,2.20
2018-12-06T16:10:24.095Z,1.60
2018-12-06T16:12:52.506Z,1.90
2018-12-06T16:15:20.898Z,2.27
2018-12-06T16:17:49.446Z,1.75
2018-12-06T16:20:18.631Z,1.70
2018-12-06T16:22:46.942Z,1.80
2018-12-06T16:25:15.267Z,1.60
2018-12-06T16:27:45.133Z,2.35
2018-12-06T16:30:15.487Z,2.05
2018-12-06T16:32:44.544Z,2.40
2018-12-06T16:35:17.657Z,2.50
2018-12-06T16:37:46.065Z,1.50
2018-12-06T16:40:14.623Z,1.90
2018-12-06T16:42:43.420Z,2.70
2018-12-06T16:45:11.738Z,2.33
2018-12-06T16:47:47.498Z,1.90
2018-12-06T16:50:15.883Z,2.52
2018-12-06T16:52:44.240Z,2.00
2018-12-06T16:55:13.455Z,2.27
2018-12-06T16:57:41.903Z,2.60
2018-12-06T17:00:14.593Z,2.10
2018-12-06T17:02:43.158Z,2.83
2018-12-06T17:05:11.497Z,2.73
2018-12-06T17:07:39.934Z,2.22
2018-12-06T17:10:12.946Z,2.60
2018-12-06T17:12:41.248Z,2.30
2018-12-06T17:15:09.661Z,2.08
2018-12-06T17:17:38.083Z,2.20
2018-12-06T17:20:07.557Z,2.20
2018-12-06T17:22:35.911Z,2.33
2018-12-06T17:25:04.850Z,1.50
2018-12-06T17:27:33.291Z,2.10
2018-12-06T17:30:01.994Z,2.35
2018-12-06T17:32:30.906Z,2.20
2018-12-06T17:34:59.546Z,2.42
2018-12-06T17:37:28.971Z,2.22
2018-12-06T17:39:57.319Z,2.20
2018-12-06T17:42:25.715Z,2.12
2018-12-06T17:44:54.092Z,2.45
2018-12-06T17:47:22.790Z,2.45
2018-12-06T17:49:51.958Z,2.40
2018-12-06T17:52:20.599Z,2.22
2018-12-06T17:54:48.939Z,2.12
2018-12-06T17:57:18.226Z,1.80
2018-12-06T17:59:46.594Z,2.87
2018-12-06T18:02:15.297Z,3.00
2018-12-06T18:04:43.639Z,2.02
2018-12-06T18:07:12.035Z,2.80
2018-12-06T18:09:40.663Z,2.27
2018-12-06T18:12:08.978Z,2.00
2018-12-06T18:14:40.044Z,2.40
2018-12-06T18:17:08.735Z,2.30
2018-12-06T18:19:37.094Z,2.52
2018-12-06T18:22:05.473Z,2.33
2018-12-06T18:24:33.849Z,2.22
2018-12-06T18:27:02.246Z,2.35
2018-12-06T18:29:30.810Z,2.50
2018-12-06T18:31:59.444Z,2.30
2018-12-06T18:34:28.048Z,2.27
2018-12-06T18:37:00.331Z,1.95
2018-12-06T18:39:29.492Z,2.20
2018-12-06T18:42:01.533Z,1.57
2018-12-06T18:44:29.959Z,2.20
2018-12-06T18:46:59.122Z,1.80
2018-12-06T18:49:27.398Z,2.22
2018-12-06T18:52:00.201Z,2.27
2018-12-06T18:54:28.591Z,2.40
2018-12-06T18:56:57.391Z,2.50
2018-12-06T18:59:25.716Z,1.72
2018-12-06T19:01:54.143Z,1.50
2018-12-06T19:04:22.759Z,1.70
2018-12-06T19:06:51.188Z,1.80
2018-12-06T19:09:19.508Z,1.67
2018-12-06T19:11:48.207Z,1.55
2018-12-06T19:14:21.732Z,1.62
2018-12-06T19:16:47.128Z,1.62
2018-12-06T19:19:15.449Z,1.30
2018-12-06T19:21:48.149Z,1.90
2018-12-06T19:24:17.104Z,1.40
2018-12-06T19:26:45.637Z,1.80
2018-12-06T19:29:14.100Z,1.95
2018-12-06T19:31:42.812Z,2.72
2018-12-06T19:34:11.596Z,2.55
2018-12-06T19:36:40.270Z,1.80
2018-12-06T19:39:10.033Z,1.70
2018-12-06T19:41:56.275Z,2.00
2018-12-06T19:44:25.362Z,1.75
2018-12-06T19:46:53.822Z,2.40
2018-12-06T19:49:22.501Z,1.72
2018-12-06T19:51:52.427Z,1.30
2018-12-06T19:54:20.731Z,1.45
2018-12-06T19:56:50.000Z,1.62
2018-12-06T19:59:18.291Z,1.90
2018-12-06T20:01:47.503Z,1.87
2018-12-06T20:04:15.783Z,2.20
2018-12-06T20:06:46.417Z,1.55
2018-12-06T20:09:15.297Z,1.92
2018-12-06T20:11:43.618Z,1.85
2018-12-06T20:14:12.203Z,1.80
2018-12-06T20:16:40.544Z,2.15
2018-12-06T20:19:08.867Z,1.30
2018-12-06T20:21:37.598Z,1.70
2018-12-06T20:24:06.008Z,1.30
2018-12-06T20:26:34.352Z,1.70
2018-12-06T20:29:02.631Z,1.35
2018-12-06T20:31:31.093Z,1.72
2018-12-06T20:34:00.042Z,1.20
2018-12-06T20:36:28.372Z,1.50
2018-12-06T20:38:56.636Z,0.90
2018-12-06T20:41:24.982Z,1.85
2018-12-06T20:43:53.267Z,2.10
2018-12-06T20:46:21.624Z,2.08
2018-12-06T20:48:49.941Z,1.60
2018-12-06T20:51:18.380Z,1.60
2018-12-06T20:53:46.667Z,1.45
2018-12-06T20:56:15.092Z,1.77
2018-12-06T20:58:43.486Z,2.30
2018-12-06T21:01:11.959Z,2.00
2018-12-06T21:03:40.357Z,1.82
2018-12-06T21:06:08.865Z,1.42
2018-12-06T21:08:37.163Z,1.72
2018-12-06T21:11:05.474Z,2.02
2018-12-06T21:13:34.072Z,1.67
2018-12-06T21:16:02.550Z,1.67
2018-12-06T21:18:30.921Z,1.42
2018-12-06T21:21:00.451Z,1.80
2018-12-06T21:23:30.144Z,1.75
2018-12-06T21:25:58.682Z,1.85
2018-12-06T21:28:27.351Z,1.67
2018-12-06T21:30:56.421Z,1.40
2018-12-06T21:33:27.181Z,1.50
2018-12-06T21:35:55.792Z,1.75
2018-12-06T21:38:24.395Z,1.60
2018-12-06T21:40:56.314Z,1.45
2018-12-06T21:43:24.913Z,1.40
2018-12-06T21:45:54.305Z,1.57
2018-12-06T21:48:24.435Z,1.37
2018-12-06T21:51:02.084Z,1.45
2018-12-06T21:53:31.277Z,1.95
2018-12-06T21:56:06.897Z,1.52
2018-12-06T21:58:38.438Z,1.45
2018-12-06T22:01:09.658Z,1.50
2018-12-06T22:03:39.452Z,1.52
2018-12-06T22:06:07.830Z,1.40
2018-12-06T22:08:36.098Z,1.60
2018-12-06T22:11:09.293Z,1.40
2018-12-06T22:13:39.715Z,1.62
2018-12-06T22:16:08.108Z,1.30
2018-12-06T22:18:36.806Z,1.80
2018-12-06T22:21:05.196Z,1.40
2018-12-06T22:23:33.506Z,1.30
2018-12-06T22:26:01.927Z,1.67
2018-12-06T22:28:34.030Z,1.50
2018-12-06T22:31:01.534Z,1.20
2018-12-06T22:33:31.264Z,1.67
2018-12-06T22:36:00.174Z,1.60
2018-12-06T22:38:34.028Z,1.30
2018-12-06T22:41:00.881Z,1.22
2018-12-06T22:43:29.362Z,1.27
2018-12-06T22:46:00.472Z,1.10
2018-12-06T22:48:29.086Z,1.20
2018-12-06T22:50:57.358Z,1.55
2018-12-06T22:53:25.690Z,1.05
2018-12-06T22:55:54.057Z,1.57
2018-12-06T22:58:22.481Z,1.67
2018-12-06T23:00:56.486Z,1.30
2018-12-06T23:03:24.888Z,1.10
2018-12-06T23:05:54.134Z,1.35
2018-12-06T23:08:22.795Z,1.52
2018-12-06T23:10:51.249Z,2.08
2018-12-06T23:13:19.620Z,1.70
2018-12-06T23:15:47.911Z,1.60
2018-12-06T23:18:16.307Z,1.20
2018-12-06T23:20:44.709Z,1.23
2018-12-06T23:23:13.203Z,1.00
2018-12-06T23:25:41.488Z,1.22
2018-12-06T23:28:09.996Z,1.17
2018-12-06T23:30:38.561Z,1.00
2018-12-06T23:33:07.046Z,0.90
2018-12-06T23:35:35.466Z,1.02
2018-12-06T23:38:03.753Z,1.30
2018-12-06T23:40:32.283Z,1.45
2018-12-06T23:43:00.593Z,1.00
2018-12-06T23:45:29.090Z,1.15
2018-12-06T23:47:57.379Z,1.25
2018-12-06T23:50:25.875Z,1.00
2018-12-06T23:52:54.164Z,1.17
2018-12-06T23:55:22.508Z,0.90
2018-12-06T23:57:50.955Z,1.00
